Time;durP1;ratioP1;P1;durP2;ratioP2;P2;SDS_P1;SDS_P2;PMS_P1;PMS_P2;Temp;Humidity;BMP_temperature;BMP_pressure;BME280_temperature;BME280_humidity;BME280_pressure;Samples;Min_cycle;Max_cycle;Signal;HPM_P1;HPM_P2
2023/02/08 00:01:10;;;;;;;;;;;-4.70;1.00;;;;;;4987483;28;19925;-74
2023/02/08 00:03:36;;;;;;;;;;;-4.80;1.00;;;;;;4989009;28;19929;-74
2023/02/08 00:06:03;;;;;;;;;;;-4.80;1.00;;;;;;4990680;28;19910;-74
2023/02/08 00:08:29;;;;;;;;;;;-4.90;1.00;;;;;;4992706;28;19910;-75
2023/02/08 00:10:55;;;;;;;;;;;-4.90;1.00;;;;;;4988215;28;19917;-74
2023/02/08 00:13:21;;;;;;;;;;;-5.00;1.00;;;;;;4993741;28;20375;-74
2023/02/08 00:15:47;;;;;;;;;;;-5.00;1.00;;;;;;4991419;28;20294;-74
2023/02/08 00:18:13;;;;;;;;;;;-5.00;1.00;;;;;;4991815;28;19909;-75
2023/02/08 00:20:40;;;;;;;;;;;-5.00;1.00;;;;;;4990597;28;19910;-74
2023/02/08 00:23:06;;;;;;;;;;;-5.00;1.00;;;;;;4993534;28;19925;-73
2023/02/08 00:25:32;;;;;;;;;;;-5.00;1.00;;;;;;4991759;28;19909;-75
2023/02/08 00:27:58;;;;;;;;;;;-5.00;1.00;;;;;;4990006;28;20263;-72
2023/02/08 00:30:24;;;;;;;;;;;-5.00;1.00;;;;;;4989496;28;20363;-77
2023/02/08 00:32:50;;;;;;;;;;;-5.00;1.00;;;;;;4991023;28;20354;-73
2023/02/08 00:35:17;;;;;;;;;;;-5.00;1.00;;;;;;4992078;28;19916;-75
2023/02/08 00:37:43;;;;;;;;;;;-5.00;1.00;;;;;;4993001;28;20307;-73
2023/02/08 00:40:09;;;;;;;;;;;-4.90;1.00;;;;;;4987461;28;19921;-73
2023/02/08 00:42:36;;;;;;;;;;;-5.00;1.00;;;;;;4990469;28;19917;-73
2023/02/08 00:45:02;;;;;;;;;;;-4.90;1.00;;;;;;4990575;28;20349;-73
2023/02/08 00:47:28;;;;;;;;;;;-4.90;1.00;;;;;;4988670;28;20372;-73
2023/02/08 00:49:54;;;;;;;;;;;-5.00;1.00;;;;;;4991678;28;19910;-74
2023/02/08 00:52:21;;;;;;;;;;;-5.00;1.00;;;;;;4986088;28;19916;-74
2023/02/08 00:54:47;;;;;;;;;;;-5.10;1.00;;;;;;4991239;28;20295;-74
2023/02/08 00:57:13;;;;;;;;;;;-5.00;1.00;;;;;;4992504;28;19909;-74
2023/02/08 00:59:39;;;;;;;;;;;-5.10;1.00;;;;;;4987482;28;19914;-74
2023/02/08 01:02:06;;;;;;;;;;;-5.10;1.00;;;;;;4991673;28;19918;-73
2023/02/08 01:04:32;;;;;;;;;;;-5.20;1.00;;;;;;4987600;28;19910;-73
2023/02/08 01:06:58;;;;;;;;;;;-5.20;1.00;;;;;;4991249;28;19933;-74
2023/02/08 01:09:24;;;;;;;;;;;-5.20;1.00;;;;;;4988130;28;19910;-74
2023/02/08 01:11:50;;;;;;;;;;;-5.20;1.00;;;;;;4990730;28;19916;-74
2023/02/08 01:14:17;;;;;;;;;;;-5.20;1.00;;;;;;4991796;28;19917;-74
2023/02/08 01:16:43;;;;;;;;;;;-5.20;1.00;;;;;;4988212;28;19913;-73
2023/02/08 01:19:09;;;;;;;;;;;-5.20;1.00;;;;;;4984768;28;19957;-73
2023/02/08 01:21:37;;;;;;;;;;;-5.20;1.00;;;;;;4987655;28;20013;-74
2023/02/08 01:24:03;;;;;;;;;;;-5.30;1.00;;;;;;4990085;28;19918;-73
2023/02/08 01:26:30;;;;;;;;;;;-5.20;1.00;;;;;;4988776;28;19910;-74
2023/02/08 01:28:55;;;;;;;;;;;-5.30;1.00;;;;;;4987395;28;19917;-73
2023/02/08 01:31:23;;;;;;;;;;;-5.30;1.00;;;;;;4990644;28;19910;-73
2023/02/08 01:33:49;;;;;;;;;;;-5.30;1.00;;;;;;4986199;28;19916;-74
2023/02/08 01:36:15;;;;;;;;;;;-5.40;1.00;;;;;;4989971;28;19917;-73
2023/02/08 01:38:42;;;;;;;;;;;-5.30;1.00;;;;;;4987451;28;19913;-73
2023/02/08 01:41:12;;;;;;;;;;;-5.40;1.00;;;;;;4988422;28;19914;-73
2023/02/08 01:43:58;;;;;;;;;;;-5.40;1.00;;;;;;4990579;28;19913;-74
2023/02/08 01:46:24;;;;;;;;;;;-5.40;1.00;;;;;;4987498;28;19910;-73
2023/02/08 01:48:50;;;;;;;;;;;-5.40;1.00;;;;;;4974468;28;20213;-76
2023/02/08 01:51:20;;;;;;;;;;;-5.40;1.00;;;;;;4989101;28;19909;-73
2023/02/08 01:53:47;;;;;;;;;;;-5.50;1.00;;;;;;4987663;28;19914;-74
2023/02/08 01:56:16;;;;;;;;;;;-5.50;1.00;;;;;;4991015;28;20263;-74
2023/02/08 01:58:47;;;;;;;;;;;-5.50;1.00;;;;;;4984591;28;19913;-74
2023/02/08 02:01:14;;;;;;;;;;;-5.60;1.00;;;;;;4989473;28;19917;-74
2023/02/08 02:03:41;;;;;;;;;;;-5.50;1.00;;;;;;4987560;28;19906;-74
2023/02/08 02:06:09;;;;;;;;;;;-5.40;1.00;;;;;;4987906;28;19913;-73
2023/02/08 02:08:39;;;;;;;;;;;-5.40;1.00;;;;;;4988773;28;19944;-74
2023/02/08 02:11:05;;;;;;;;;;;-5.50;1.00;;;;;;4989405;28;19909;-74
2023/02/08 02:13:31;;;;;;;;;;;-5.50;1.00;;;;;;4991573;28;20318;-74
2023/02/08 02:15:57;;;;;;;;;;;-5.50;1.00;;;;;;4988527;28;19918;-74
2023/02/08 02:18:24;;;;;;;;;;;-5.70;1.00;;;;;;4989574;28;20395;-75
2023/02/08 02:21:04;;;;;;;;;;;-5.70;1.00;;;;;;4989759;28;19921;-74
2023/02/08 02:23:44;;;;;;;;;;;-5.70;1.00;;;;;;4986626;28;20275;-74
2023/02/08 02:26:10;;;;;;;;;;;-5.70;1.00;;;;;;4990790;28;20357;-73
2023/02/08 02:28:42;;;;;;;;;;;-5.80;1.00;;;;;;4987668;28;19910;-74
2023/02/08 02:31:10;;;;;;;;;;;-5.80;1.00;;;;;;4974312;28;20279;-73
2023/02/08 02:33:42;;;;;;;;;;;-5.80;1.00;;;;;;4990167;28;19913;-74
2023/02/08 02:36:13;;;;;;;;;;;-5.90;1.00;;;;;;4989718;28;19909;-74
2023/02/08 02:39:01;;;;;;;;;;;-5.80;1.00;;;;;;4979865;28;19910;-74
2023/02/08 02:44:46;;;;;;;;;;;-5.80;1.00;;;;;;4986578;28;19911;-73
2023/02/08 02:47:18;;;;;;;;;;;-5.90;1.00;;;;;;4984440;28;19910;-73
2023/02/08 02:49:50;;;;;;;;;;;-6.00;1.00;;;;;;4989306;28;19914;-73
2023/02/08 02:52:20;;;;;;;;;;;-6.10;1.00;;;;;;4985663;28;20390;-72
2023/02/08 02:54:50;;;;;;;;;;;-6.10;1.00;;;;;;4990798;28;19929;-73
2023/02/08 02:57:20;;;;;;;;;;;-6.20;1.00;;;;;;4987614;28;19910;-73
2023/02/08 02:59:46;;;;;;;;;;;-6.20;1.00;;;;;;4987784;28;19906;-75
2023/02/08 03:02:12;;;;;;;;;;;-6.20;1.00;;;;;;4989063;28;19917;-72
2023/02/08 03:04:38;;;;;;;;;;;-6.20;1.00;;;;;;4984253;28;19916;-73
2023/02/08 03:07:14;;;;;;;;;;;-6.20;1.00;;;;;;4990910;28;20022;-73
2023/02/08 03:09:40;;;;;;;;;;;-6.20;1.00;;;;;;4984959;28;20110;-73
2023/02/08 03:12:09;;;;;;;;;;;-6.20;1.00;;;;;;4989653;28;20429;-73
2023/02/08 03:14:46;;;;;;;;;;;-6.20;1.00;;;;;;4988932;28;19916;-73
2023/02/08 03:17:12;;;;;;;;;;;-6.30;1.00;;;;;;4986818;28;20275;-73
2023/02/08 03:19:46;;;;;;;;;;;-6.30;1.00;;;;;;4988928;28;19917;-73
2023/02/08 03:22:19;;;;;;;;;;;-6.30;1.00;;;;;;4988512;28;20386;-73
2023/02/08 03:24:52;;;;;;;;;;;-6.40;1.00;;;;;;4988003;28;19929;-73
2023/02/08 03:27:27;;;;;;;;;;;-6.40;1.00;;;;;;4985875;28;19914;-73
2023/02/08 03:30:14;;;;;;;;;;;-6.30;1.00;;;;;;4984659;28;19909;-73
2023/02/08 03:32:53;;;;;;;;;;;-6.30;1.00;;;;;;4985439;28;19909;-73
2023/02/08 03:35:21;;;;;;;;;;;-6.30;1.00;;;;;;4988839;28;19919;-73
2023/02/08 03:37:56;;;;;;;;;;;-6.30;1.00;;;;;;4987177;28;19921;-73
2023/02/08 03:40:35;;;;;;;;;;;-6.30;1.00;;;;;;4988231;28;19913;-75
2023/02/08 03:43:03;;;;;;;;;;;-6.30;1.00;;;;;;4986144;28;19918;-73
2023/02/08 03:45:37;;;;;;;;;;;-6.40;1.00;;;;;;4987249;28;19917;-73
2023/02/08 03:48:05;;;;;;;;;;;-6.40;1.00;;;;;;4981248;28;20283;-73
2023/02/08 03:50:33;;;;;;;;;;;-6.30;1.00;;;;;;4984626;28;20271;-74
2023/02/08 03:53:00;;;;;;;;;;;-6.20;1.00;;;;;;4989042;28;19914;-73
2023/02/08 03:55:28;;;;;;;;;;;-6.10;1.00;;;;;;4984005;28;20276;-75
2023/02/08 03:58:07;;;;;;;;;;;-6.10;1.00;;;;;;4985709;28;19917;-73
2023/02/08 04:00:35;;;;;;;;;;;-6.10;1.00;;;;;;4991707;28;19920;-73
2023/02/08 04:03:05;;;;;;;;;;;-6.20;1.00;;;;;;4989592;28;19918;-73
2023/02/08 04:05:32;;;;;;;;;;;-6.30;1.00;;;;;;4991090;28;19917;-73
2023/02/08 04:07:58;;;;;;;;;;;-6.10;1.00;;;;;;4992115;28;20376;-73
2023/02/08 04:10:24;;;;;;;;;;;-6.00;1.00;;;;;;4989061;28;19917;-74
2023/02/08 04:12:50;;;;;;;;;;;-6.00;1.00;;;;;;4993489;28;19909;-73
2023/02/08 04:15:16;;;;;;;;;;;-5.90;1.00;;;;;;4989230;28;20377;-73
2023/02/08 04:17:42;;;;;;;;;;;-5.80;1.00;;;;;;4991488;28;19906;-74
2023/02/08 04:20:08;;;;;;;;;;;-5.60;1.00;;;;;;4983077;28;19960;-73
2023/02/08 04:22:34;;;;;;;;;;;-5.60;1.00;;;;;;4991943;28;19922;-73
2023/02/08 04:25:00;;;;;;;;;;;-5.60;1.00;;;;;;4989909;28;19916;-73
2023/02/08 04:27:26;;;;;;;;;;;-5.70;1.00;;;;;;4990722;28;19997;-74
2023/02/08 04:29:52;;;;;;;;;;;-5.70;1.00;;;;;;4989101;28;19916;-73
2023/02/08 04:32:18;;;;;;;;;;;-5.70;1.00;;;;;;4989697;28;19936;-73
2023/02/08 04:34:44;;;;;;;;;;;-5.70;1.00;;;;;;4991916;28;19924;-73
2023/02/08 04:37:10;;;;;;;;;;;-5.70;1.00;;;;;;4987644;28;19906;-73
2023/02/08 04:39:37;;;;;;;;;;;-5.80;1.00;;;;;;4985904;28;19913;-73
2023/02/08 04:42:03;;;;;;;;;;;-5.90;1.00;;;;;;4990273;28;19918;-73
2023/02/08 04:44:31;;;;;;;;;;;-5.90;1.00;;;;;;4991492;28;19906;-74
2023/02/08 04:46:58;;;;;;;;;;;-6.00;1.00;;;;;;4992495;28;19941;-73
2023/02/08 04:49:24;;;;;;;;;;;-6.00;1.00;;;;;;4986648;28;20275;-72
2023/02/08 04:51:50;;;;;;;;;;;-6.00;1.00;;;;;;4987175;28;19956;-73
2023/02/08 04:54:16;;;;;;;;;;;-6.00;1.00;;;;;;4992257;28;19913;-73
2023/02/08 04:56:42;;;;;;;;;;;-5.90;1.00;;;;;;4988802;28;20460;-73
2023/02/08 04:59:07;;;;;;;;;;;-6.00;1.00;;;;;;4990666;28;19906;-73
2023/02/08 05:01:33;;;;;;;;;;;-6.00;1.00;;;;;;4985803;28;19924;-75
2023/02/08 05:03:59;;;;;;;;;;;-6.10;1.00;;;;;;4990384;28;20083;-73
2023/02/08 05:06:25;;;;;;;;;;;-6.10;1.00;;;;;;4989913;28;20371;-75
2023/02/08 05:08:51;;;;;;;;;;;-6.10;1.00;;;;;;4986993;28;20020;-74
2023/02/08 05:11:24;;;;;;;;;;;-6.20;1.00;;;;;;4990791;28;19918;-73
2023/02/08 05:13:50;;;;;;;;;;;-6.20;1.00;;;;;;4990508;28;20688;-74
2023/02/08 05:16:16;;;;;;;;;;;-6.20;1.00;;;;;;4992603;28;19909;-74
2023/02/08 05:18:42;;;;;;;;;;;-6.30;1.00;;;;;;4988643;28;20009;-74
2023/02/08 05:21:08;;;;;;;;;;;-6.30;1.00;;;;;;4992968;28;20248;-73
2023/02/08 05:23:35;;;;;;;;;;;-6.40;1.00;;;;;;4989601;28;19909;-74
2023/02/08 05:26:09;;;;;;;;;;;-6.50;1.00;;;;;;4992322;28;19909;-73
2023/02/08 05:28:35;;;;;;;;;;;-6.50;1.00;;;;;;4989571;28;19909;-75
2023/02/08 05:31:08;;;;;;;;;;;-6.50;1.00;;;;;;4989905;28;20279;-73
2023/02/08 05:33:34;;;;;;;;;;;-6.60;1.00;;;;;;4991246;28;20028;-73
2023/02/08 05:36:00;;;;;;;;;;;-6.60;1.00;;;;;;4990201;28;20351;-73
2023/02/08 05:38:26;;;;;;;;;;;-6.60;1.00;;;;;;4990437;28;20344;-74
2023/02/08 05:40:52;;;;;;;;;;;-6.60;1.00;;;;;;4989752;28;19985;-76
2023/02/08 05:43:18;;;;;;;;;;;-6.70;1.00;;;;;;4989678;28;19914;-73
2023/02/08 05:45:44;;;;;;;;;;;-6.80;1.00;;;;;;4991474;28;20268;-76
2023/02/08 05:48:10;;;;;;;;;;;-6.70;1.00;;;;;;4991834;28;19914;-75
2023/02/08 05:50:36;;;;;;;;;;;-6.70;1.00;;;;;;4988501;28;19941;-75
2023/02/08 05:53:02;;;;;;;;;;;-6.70;1.00;;;;;;4990687;28;19914;-75
2023/02/08 05:55:28;;;;;;;;;;;-6.70;1.00;;;;;;4987895;28;19913;-77
2023/02/08 05:57:54;;;;;;;;;;;-6.70;1.00;;;;;;4988610;28;19909;-74
2023/02/08 06:00:20;;;;;;;;;;;-6.80;1.00;;;;;;4982257;28;19914;-76
2023/02/08 06:02:47;;;;;;;;;;;-6.80;1.00;;;;;;4986996;28;19928;-75
2023/02/08 06:05:13;;;;;;;;;;;-6.80;1.00;;;;;;4988552;28;20302;-75
2023/02/08 06:07:39;;;;;;;;;;;-6.80;1.00;;;;;;4988343;28;19905;-75
2023/02/08 06:10:06;;;;;;;;;;;-6.80;1.00;;;;;;4990195;28;19989;-75
2023/02/08 06:12:32;;;;;;;;;;;-6.80;1.00;;;;;;4989214;28;19910;-78
2023/02/08 06:14:57;;;;;;;;;;;-6.90;1.00;;;;;;4990392;28;19960;-75
2023/02/08 06:17:23;;;;;;;;;;;-6.90;1.00;;;;;;4986666;28;19952;-75
2023/02/08 06:19:49;;;;;;;;;;;-6.90;1.00;;;;;;4987865;28;19941;-75
2023/02/08 06:22:15;;;;;;;;;;;-6.90;1.00;;;;;;4987932;28;20472;-74
2023/02/08 06:24:42;;;;;;;;;;;-7.00;1.00;;;;;;4987471;28;19913;-76
2023/02/08 06:27:07;;;;;;;;;;;-6.90;1.00;;;;;;4990621;28;19910;-75
2023/02/08 06:29:33;;;;;;;;;;;-6.90;1.00;;;;;;4985805;28;19910;-74
2023/02/08 06:31:59;;;;;;;;;;;-6.90;1.00;;;;;;4989532;28;20333;-75
2023/02/08 06:34:25;;;;;;;;;;;-6.90;1.00;;;;;;4989456;28;19910;-75
2023/02/08 06:36:51;;;;;;;;;;;-6.80;1.00;;;;;;4987210;28;19933;-74
2023/02/08 06:39:17;;;;;;;;;;;-6.90;1.00;;;;;;4978429;28;20020;-75
2023/02/08 06:41:43;;;;;;;;;;;-6.80;1.00;;;;;;4979940;28;19933;-76
2023/02/08 06:44:09;;;;;;;;;;;-6.80;1.00;;;;;;4991397;28;20012;-75
2023/02/08 06:46:35;;;;;;;;;;;-6.80;1.00;;;;;;4987865;28;19960;-75
2023/02/08 06:49:01;;;;;;;;;;;-6.90;1.00;;;;;;4986566;28;19935;-75
2023/02/08 06:51:27;;;;;;;;;;;-6.90;1.00;;;;;;4990262;28;20373;-77
2023/02/08 06:53:53;;;;;;;;;;;-6.90;1.00;;;;;;4986195;28;20378;-75
2023/02/08 06:56:19;;;;;;;;;;;-6.90;1.00;;;;;;4989035;28;19910;-75
2023/02/08 06:58:45;;;;;;;;;;;-6.90;1.00;;;;;;4986552;28;20390;-75
2023/02/08 07:01:12;;;;;;;;;;;-6.90;1.00;;;;;;4987048;28;20290;-75
2023/02/08 07:03:38;;;;;;;;;;;-6.90;1.00;;;;;;4988292;28;19922;-75
2023/02/08 07:06:04;;;;;;;;;;;-6.90;1.00;;;;;;4986503;28;19905;-75
2023/02/08 07:08:31;;;;;;;;;;;-6.90;1.00;;;;;;4988327;28;19917;-73
2023/02/08 07:10:57;;;;;;;;;;;-6.90;1.00;;;;;;4988633;28;19921;-75
2023/02/08 07:13:23;;;;;;;;;;;-6.80;1.00;;;;;;4991016;28;19913;-74
2023/02/08 07:15:50;;;;;;;;;;;-6.80;1.00;;;;;;4986233;28;19922;-73
2023/02/08 07:18:16;;;;;;;;;;;-6.90;1.00;;;;;;4991512;28;19910;-76
2023/02/08 07:20:42;;;;;;;;;;;-6.90;1.00;;;;;;4988017;28;20355;-75
2023/02/08 07:23:08;;;;;;;;;;;-6.90;1.00;;;;;;4985025;28;19913;-76
2023/02/08 07:25:34;;;;;;;;;;;-6.90;1.00;;;;;;4990919;28;19969;-74
2023/02/08 07:28:00;;;;;;;;;;;-6.90;1.00;;;;;;4985938;28;19993;-75
2023/02/08 07:30:26;;;;;;;;;;;-6.80;1.00;;;;;;4982458;28;19910;-75
2023/02/08 07:32:52;;;;;;;;;;;-6.80;1.00;;;;;;4975214;28;19913;-74
2023/02/08 07:35:18;;;;;;;;;;;-6.70;1.00;;;;;;4991602;28;19910;-75
2023/02/08 07:37:44;;;;;;;;;;;-6.70;1.00;;;;;;4991338;28;20240;-75
2023/02/08 07:40:10;;;;;;;;;;;-6.70;1.00;;;;;;4989737;28;20255;-75
2023/02/08 07:42:36;;;;;;;;;;;-6.60;1.00;;;;;;4992908;28;19910;-75
2023/02/08 07:45:16;;;;;;;;;;;-6.50;1.00;;;;;;4988211;28;20380;-75
2023/02/08 07:47:42;;;;;;;;;;;-6.40;1.00;;;;;;4990557;28;19910;-74
2023/02/08 07:50:08;;;;;;;;;;;-6.20;1.00;;;;;;4992728;28;19930;-75
2023/02/08 07:52:34;;;;;;;;;;;-5.90;1.00;;;;;;4989250;28;19913;-75
2023/02/08 07:55:00;;;;;;;;;;;-5.60;1.00;;;;;;4991785;28;19929;-75
2023/02/08 07:57:26;;;;;;;;;;;-5.40;1.00;;;;;;4989716;28;19910;-75
2023/02/08 07:59:52;;;;;;;;;;;-5.00;1.00;;;;;;4990618;28;19925;-74
2023/02/08 08:02:18;;;;;;;;;;;-4.70;1.00;;;;;;4993281;28;19925;-74
2023/02/08 08:04:45;;;;;;;;;;;-4.60;1.00;;;;;;4989647;28;19917;-73
2023/02/08 08:07:11;;;;;;;;;;;-4.40;1.00;;;;;;4992629;28;20311;-73
2023/02/08 08:09:37;;;;;;;;;;;-4.20;1.00;;;;;;4988796;28;19910;-73
2023/02/08 08:12:04;;;;;;;;;;;-4.00;1.00;;;;;;4991549;28;19910;-73
2023/02/08 08:14:30;;;;;;;;;;;-3.80;1.00;;;;;;4990535;28;19929;-73
2023/02/08 08:16:56;;;;;;;;;;;-3.50;1.00;;;;;;5005169;28;19905;-74
2023/02/08 08:19:22;;;;;;;;;;;-3.30;1.00;;;;;;4992214;28;20414;-74
2023/02/08 08:21:48;;;;;;;;;;;-3.10;1.00;;;;;;4988871;28;20103;-73
2023/02/08 08:24:14;;;;;;;;;;;-2.80;1.00;;;;;;4993768;28;19913;-73
2023/02/08 08:26:40;;;;;;;;;;;-2.70;1.00;;;;;;4989493;28;20421;-72
2023/02/08 08:29:06;;;;;;;;;;;-2.50;1.00;;;;;;4991280;28;19906;-73
2023/02/08 08:31:32;;;;;;;;;;;-2.20;1.00;;;;;;4991527;28;19916;-73
2023/02/08 08:33:58;;;;;;;;;;;-2.10;1.00;;;;;;4990637;28;19914;-72
2023/02/08 08:36:24;;;;;;;;;;;-1.80;1.00;;;;;;4993518;28;19913;-73
2023/02/08 08:38:50;;;;;;;;;;;-1.40;1.00;;;;;;4987714;28;19914;-73
2023/02/08 08:41:25;;;;;;;;;;;-1.00;1.00;;;;;;4991685;28;19906;-73
2023/02/08 08:43:51;;;;;;;;;;;-0.70;99.90;;;;;;4988503;28;19917;-73
2023/02/08 08:46:17;;;;;;;;;;;-0.40;99.90;;;;;;4989967;28;19921;-73
2023/02/08 08:48:43;;;;;;;;;;;-0.30;99.90;;;;;;4991292;28;20279;-73
2023/02/08 08:51:10;;;;;;;;;;;-0.20;99.90;;;;;;4989312;28;19910;-73
2023/02/08 08:53:36;;;;;;;;;;;0.00;99.90;;;;;;4989487;28;20264;-74
2023/02/08 08:56:02;;;;;;;;;;;0.20;99.90;;;;;;4991787;28;20256;-73
2023/02/08 08:58:28;;;;;;;;;;;0.20;99.90;;;;;;4988466;28;19929;-76
2023/02/08 09:00:57;;;;;;;;;;;0.20;99.90;;;;;;4991014;28;19918;-73
2023/02/08 09:03:24;;;;;;;;;;;0.20;99.90;;;;;;4989671;28;19918;-73
2023/02/08 09:05:50;;;;;;;;;;;0.30;99.90;;;;;;4988372;28;19916;-73
2023/02/08 09:08:16;;;;;;;;;;;0.40;99.90;;;;;;4988560;28;19941;-73
2023/02/08 09:10:42;;;;;;;;;;;0.40;99.90;;;;;;4990393;28;19936;-72
2023/02/08 09:13:08;;;;;;;;;;;0.40;99.90;;;;;;4990661;28;19953;-73
2023/02/08 09:15:37;;;;;;;;;;;0.40;99.90;;;;;;4988912;28;19910;-72
2023/02/08 09:18:03;;;;;;;;;;;0.50;99.90;;;;;;4991426;28;20375;-75
2023/02/08 09:20:29;;;;;;;;;;;0.60;99.90;;;;;;4982798;28;20260;-73
2023/02/08 09:22:55;;;;;;;;;;;0.60;99.90;;;;;;4990250;28;19922;-73
2023/02/08 09:25:21;;;;;;;;;;;0.60;99.90;;;;;;4989106;28;19913;-73
2023/02/08 09:27:47;;;;;;;;;;;0.70;99.90;;;;;;4990940;28;19914;-73
2023/02/08 09:30:13;;;;;;;;;;;0.80;99.90;;;;;;4990584;28;19910;-73
2023/02/08 09:32:39;;;;;;;;;;;1.00;99.90;;;;;;4989793;28;20371;-73
2023/02/08 09:35:06;;;;;;;;;;;1.10;99.90;;;;;;4993094;28;19910;-73
2023/02/08 09:37:32;;;;;;;;;;;1.20;99.90;;;;;;4988815;28;19917;-73
2023/02/08 09:39:59;;;;;;;;;;;1.20;99.90;;;;;;4989739;28;19910;-73
2023/02/08 09:42:32;;;;;;;;;;;1.30;99.90;;;;;;4991474;28;20354;-73
2023/02/08 09:45:17;;;;;;;;;;;1.50;99.90;;;;;;4990381;28;19917;-73
2023/02/08 09:47:49;;;;;;;;;;;1.50;99.90;;;;;;4990416;28;19920;-73
2023/02/08 09:50:34;;;;;;;;;;;1.70;99.90;;;;;;4998988;28;20369;-74
2023/02/08 09:53:02;;;;;;;;;;;1.60;99.90;;;;;;4989814;28;20359;-75
2023/02/08 09:55:32;;;;;;;;;;;1.60;99.90;;;;;;4990792;28;19918;-76
2023/02/08 09:57:59;;;;;;;;;;;1.60;99.90;;;;;;4988305;28;19920;-77
2023/02/08 10:00:39;;;;;;;;;;;1.70;99.90;;;;;;4989550;28;19909;-76
2023/02/08 10:03:16;;;;;;;;;;;1.70;99.90;;;;;;4987842;28;19924;-76
2023/02/08 10:05:42;;;;;;;;;;;1.70;99.90;;;;;;4988025;28;20356;-76
2023/02/08 10:08:10;;;;;;;;;;;1.80;99.90;;;;;;4987747;28;19916;-76
2023/02/08 10:10:42;;;;;;;;;;;1.90;99.90;;;;;;4987311;28;19905;-76
2023/02/08 10:13:08;;;;;;;;;;;2.00;99.90;;;;;;4986863;28;19910;-76
2023/02/08 10:15:42;;;;;;;;;;;2.10;99.90;;;;;;4989213;28;19910;-76
2023/02/08 10:18:27;;;;;;;;;;;2.20;99.90;;;;;;4987053;28;19917;-75
2023/02/08 10:20:59;;;;;;;;;;;2.30;99.90;;;;;;4990554;28;19910;-75
2023/02/08 10:23:40;;;;;;;;;;;2.40;99.90;;;;;;4987397;28;19928;-75
2023/02/08 10:26:10;;;;;;;;;;;2.50;99.90;;;;;;4983074;28;19917;-75
2023/02/08 10:28:39;;;;;;;;;;;2.50;99.90;;;;;;4987879;28;19913;-76
2023/02/08 10:31:19;;;;;;;;;;;2.60;99.90;;;;;;4988069;28;19925;-75
2023/02/08 10:33:51;;;;;;;;;;;2.50;99.90;;;;;;4987996;28;19917;-75
2023/02/08 10:36:19;;;;;;;;;;;2.50;99.90;;;;;;4990754;28;19918;-75
2023/02/08 10:38:48;;;;;;;;;;;2.60;99.90;;;;;;4985533;28;19917;-75
2023/02/08 10:41:17;;;;;;;;;;;2.70;99.90;;;;;;4990792;28;19917;-75
2023/02/08 10:43:45;;;;;;;;;;;2.80;99.90;;;;;;4987837;28;20283;-74
2023/02/08 10:46:23;;;;;;;;;;;2.80;99.90;;;;;;4990323;28;20247;-75
2023/02/08 10:49:07;;;;;;;;;;;2.90;99.90;;;;;;4986142;28;19914;-75
2023/02/08 10:51:33;;;;;;;;;;;3.00;99.90;;;;;;4989407;28;19910;-75
2023/02/08 10:53:59;;;;;;;;;;;3.10;99.90;;;;;;4990353;28;19914;-75
2023/02/08 10:56:57;;;;;;;;;;;3.20;99.90;;;;;;4988703;28;19910;-75
2023/02/08 10:59:26;;;;;;;;;;;3.40;99.90;;;;;;4987390;28;19910;-75
2023/02/08 11:01:52;;;;;;;;;;;3.40;99.90;;;;;;4990096;28;20375;-75
2023/02/08 11:04:18;;;;;;;;;;;3.50;99.90;;;;;;4987884;28;19918;-74
2023/02/08 11:06:45;;;;;;;;;;;3.60;99.90;;;;;;4987159;28;19910;-74
2023/02/08 11:09:28;;;;;;;;;;;3.40;99.90;;;;;;4989792;28;20351;-75
2023/02/08 11:11:55;;;;;;;;;;;3.60;99.90;;;;;;4990237;28;19920;-74
2023/02/08 11:14:30;;;;;;;;;;;3.70;99.90;;;;;;4993135;28;20347;-74
2023/02/08 11:16:57;;;;;;;;;;;3.80;99.90;;;;;;4989473;28;19910;-74
2023/02/08 11:19:30;;;;;;;;;;;3.90;99.90;;;;;;4993603;28;19921;-74
2023/02/08 11:21:57;;;;;;;;;;;4.00;99.90;;;;;;4990954;28;19917;-73
2023/02/08 11:24:38;;;;;;;;;;;3.80;99.90;;;;;;4992805;28;19922;-74
2023/02/08 11:27:14;;;;;;;;;;;3.70;99.90;;;;;;4992380;28;19910;-74
2023/02/08 11:29:40;;;;;;;;;;;3.80;99.90;;;;;;4989040;28;19916;-74
2023/02/08 11:32:14;;;;;;;;;;;3.90;99.90;;;;;;4991024;28;20299;-74
2023/02/08 11:34:40;;;;;;;;;;;3.90;99.90;;;;;;4987965;28;19937;-74
2023/02/08 11:37:13;;;;;;;;;;;3.80;99.90;;;;;;4991477;28;19913;-74
2023/02/08 11:39:42;;;;;;;;;;;3.90;99.90;;;;;;4988835;28;19917;-73
2023/02/08 11:42:16;;;;;;;;;;;3.90;99.90;;;;;;4990970;28;19914;-72
2023/02/08 11:44:42;;;;;;;;;;;3.90;99.90;;;;;;4991761;28;19918;-75
2023/02/08 11:47:09;;;;;;;;;;;3.80;99.90;;;;;;4993967;28;19917;-73
2023/02/08 11:49:37;;;;;;;;;;;3.90;99.90;;;;;;4988660;28;19985;-74
2023/02/08 11:52:04;;;;;;;;;;;4.10;99.90;;;;;;4993148;28;19909;-74
2023/02/08 11:54:35;;;;;;;;;;;4.00;99.90;;;;;;4988473;28;19914;-73
2023/02/08 11:57:02;;;;;;;;;;;4.00;99.90;;;;;;4989128;28;19910;-73
2023/02/08 11:59:29;;;;;;;;;;;4.20;99.90;;;;;;4987689;28;19909;-75
2023/02/08 12:01:56;;;;;;;;;;;4.20;99.90;;;;;;4990143;28;20363;-77
2023/02/08 12:04:22;;;;;;;;;;;4.20;99.90;;;;;;4989542;28;20273;-74
2023/02/08 12:07:06;;;;;;;;;;;4.40;99.90;;;;;;4990815;28;19932;-73
2023/02/08 12:09:41;;;;;;;;;;;4.40;99.90;;;;;;4988002;28;19916;-74
2023/02/08 12:12:20;;;;;;;;;;;4.40;99.90;;;;;;4989258;28;20307;-74
2023/02/08 12:15:09;;;;;;;;;;;4.40;99.90;;;;;;4988512;28;19917;-74
2023/02/08 12:17:45;;;;;;;;;;;4.20;99.90;;;;;;4987230;28;20283;-73
2023/02/08 12:20:11;;;;;;;;;;;4.30;99.90;;;;;;4987943;28;19918;-73
2023/02/08 12:22:39;;;;;;;;;;;4.40;99.90;;;;;;4989287;28;20807;-74
2023/02/08 12:25:17;;;;;;;;;;;4.50;99.90;;;;;;4987813;28;19906;-74
2023/02/08 12:27:49;;;;;;;;;;;4.60;99.90;;;;;;4985341;28;19929;-75
2023/02/08 12:30:18;;;;;;;;;;;4.60;99.90;;;;;;4987230;28;19910;-73
2023/02/08 12:33:14;;;;;;;;;;;4.60;99.90;;;;;;4982893;28;19910;-74
2023/02/08 12:36:03;;;;;;;;;;;4.50;99.90;;;;;;4986039;28;19910;-74
2023/02/08 12:41:30;;;;;;;;;;;4.70;99.90;;;;;;4990763;28;19972;-75
2023/02/08 12:44:06;;;;;;;;;;;4.80;99.90;;;;;;4987952;28;19917;-74
2023/02/08 12:46:47;;;;;;;;;;;4.80;99.90;;;;;;4987332;28;20374;-73
2023/02/08 12:49:32;;;;;;;;;;;4.80;99.90;;;;;;4988337;28;19917;-75
2023/02/08 12:51:58;;;;;;;;;;;4.80;99.90;;;;;;4987460;28;19917;-74
2023/02/08 12:54:36;;;;;;;;;;;4.70;99.90;;;;;;4990849;28;19914;-75
2023/02/08 12:57:02;;;;;;;;;;;4.90;99.90;;;;;;4989371;28;19917;-74
2023/02/08 12:59:36;;;;;;;;;;;5.00;99.90;;;;;;4987644;28;19913;-74
2023/02/08 13:02:12;;;;;;;;;;;5.00;99.90;;;;;;4990054;28;19928;-74
2023/02/08 13:04:39;;;;;;;;;;;5.00;99.90;;;;;;4988743;28;20055;-75
2023/02/08 13:07:18;;;;;;;;;;;5.00;99.90;;;;;;4991766;28;20382;-74
2023/02/08 13:09:51;;;;;;;;;;;5.10;99.90;;;;;;4984122;28;19909;-76
2023/02/08 13:12:19;;;;;;;;;;;5.00;99.90;;;;;;4993719;28;19910;-75
2023/02/08 13:14:45;;;;;;;;;;;5.00;99.90;;;;;;4989661;28;19916;-75
2023/02/08 13:17:11;;;;;;;;;;;5.10;99.90;;;;;;4991498;28;20286;-76
2023/02/08 13:19:46;;;;;;;;;;;5.10;99.90;;;;;;4988665;28;20655;-75
2023/02/08 13:22:13;;;;;;;;;;;5.20;99.90;;;;;;4990396;28;19921;-75
2023/02/08 13:24:42;;;;;;;;;;;5.30;99.90;;;;;;4991999;28;19924;-75
2023/02/08 13:27:18;;;;;;;;;;;5.30;99.90;;;;;;4991724;28;19914;-76
2023/02/08 13:29:46;;;;;;;;;;;5.40;99.90;;;;;;4988842;28;20267;-75
2023/02/08 13:32:20;;;;;;;;;;;5.50;99.90;;;;;;4991694;28;20271;-76
2023/02/08 13:34:53;;;;;;;;;;;5.70;99.90;;;;;;4987796;28;19917;-76
2023/02/08 13:37:21;;;;;;;;;;;5.70;99.90;;;;;;4987096;28;20372;-74
2023/02/08 13:39:48;;;;;;;;;;;5.50;99.90;;;;;;4986701;28;20398;-74
2023/02/08 13:42:19;;;;;;;;;;;5.50;99.90;;;;;;4990618;28;19925;-75
2023/02/08 13:44:48;;;;;;;;;;;5.50;99.90;;;;;;4988106;28;19917;-75
2023/02/08 13:47:37;;;;;;;;;;;5.60;99.90;;;;;;4985542;28;19924;-75
2023/02/08 13:50:08;;;;;;;;;;;5.80;99.90;;;;;;5004140;28;19910;-75
2023/02/08 13:52:37;;;;;;;;;;;5.90;99.90;;;;;;4989977;28;19921;-76
2023/02/08 13:55:32;;;;;;;;;;;5.90;99.90;;;;;;4989636;28;20359;-76
2023/02/08 13:57:59;;;;;;;;;;;6.00;99.90;;;;;;4989566;28;19920;-75
2023/02/08 14:00:26;;;;;;;;;;;6.00;99.90;;;;;;4984583;28;19910;-75
2023/02/08 14:03:02;;;;;;;;;;;5.90;99.90;;;;;;4989853;28;19920;-74
2023/02/08 14:05:46;;;;;;;;;;;5.90;99.90;;;;;;4985607;28;19913;-75
2023/02/08 14:08:36;;;;;;;;;;;5.80;99.90;;;;;;4987075;28;20275;-75
2023/02/08 14:11:10;;;;;;;;;;;5.90;99.90;;;;;;4986724;28;19910;-75
2023/02/08 14:14:14;;;;;;;;;;;5.80;99.90;;;;;;4988889;28;19921;-74
2023/02/08 14:17:03;;;;;;;;;;;5.80;99.90;;;;;;4970625;28;20434;-75
2023/02/08 14:19:33;;;;;;;;;;;5.80;99.90;;;;;;4969460;28;19910;-75
2023/02/08 14:22:01;;;;;;;;;;;5.80;99.90;;;;;;4967491;28;19918;-75
2023/02/08 14:24:33;;;;;;;;;;;5.70;99.90;;;;;;4954107;28;19947;-74
2023/02/08 14:27:04;;;;;;;;;;;5.70;99.90;;;;;;4970144;28;19937;-74
2023/02/08 14:29:31;;;;;;;;;;;5.60;99.90;;;;;;4969453;28;20403;-75
2023/02/08 14:31:58;;;;;;;;;;;5.60;99.90;;;;;;4970176;28;19917;-75
2023/02/08 14:34:34;;;;;;;;;;;5.60;99.90;;;;;;4969216;28;19913;-75
2023/02/08 14:37:05;;;;;;;;;;;5.60;99.90;;;;;;4967493;28;19933;-75
2023/02/08 14:39:36;;;;;;;;;;;5.70;99.90;;;;;;4962585;28;19961;-75
2023/02/08 14:42:07;;;;;;;;;;;5.70;99.90;;;;;;4970890;28;20364;-75
2023/02/08 14:44:44;;;;;;;;;;;5.70;99.90;;;;;;4971004;28;19918;-75
2023/02/08 14:47:25;;;;;;;;;;;5.60;99.90;;;;;;4972832;28;19910;-75
2023/02/08 14:50:00;;;;;;;;;;;5.50;99.90;;;;;;4986487;28;19917;-76